Red Wing, WI

6:26 PM CST on November 20, 2019 (GMT -0600)
Red Wing Municipal

Weather History for KRGK - October, 2019

Change the Weather History Date:

Sunday, October 20, 2019

  Actual Average Record
Temperature  
Mean Temperature 50 °F -  
Max Temperature 66 °F 55 °F 84 °F (2003)
Min Temperature 33 °F 37 °F 21 °F (1999)
Degree Days  
Heating Degree Days 16    
Moisture  
Dew Point 33 °F    
Average Humidity 63    
Maximum Humidity 100    
Minimum Humidity 20    
Precipitation  
Precipitation 0.00 in - - ()
Sea Level Pressure  
Sea Level Pressure 29.82 in    
Wind  
Wind Speed 2 mph (ESE)    
Max Wind Speed 12 mph    
Max Gust Speed -    
Visibility 9 miles    
Events Fog    
Averages and records for this station are not official NWS values.
T = Trace of Precipitation, MM = Missing Value Source: NWS Daily Summary

Daily Weather History Graph

Daily Weather History Graph

Search for Another Location

Airport or City:

Astronomy

Oct. 20, 2019 Rise Set
Actual Time 7:31 AM CDT 6:17 PM CDT
Civil Twilight 7:01 AM CDT 6:46 PM CDT
Nautical Twilight 6:27 AM CDT 7:20 PM CDT
Astronomical Twilight 5:54 AM CDT 7:54 PM CDT
Moon 11:17 PM CDT (10/20) 2:09 PM CDT (10/20)
Length of Visible Light 11h 45m
Length of Day
10h 46m
Waning Gibbous, 59% of the Moon is Illuminated
Oct 20
Waning Gibbous
Oct 21
Last Quarter
Oct 27
New
Nov 4
First Quarter
Nov 12
Full

Hourly Weather History & Observations

Time (CDT) Temp. Windchill Dew Point Humidity Pressure Visibility Wind Dir Wind Speed Gust Speed Precip Events Conditions
12:17 AM 39.2 °F - 39.2 °F 100% 29.75 in 10.0 mi Calm Calm - N/A   Clear
12:36 AM 39.2 °F - 37.4 °F 93% 29.76 in 10.0 mi Calm Calm - N/A   Clear
12:55 AM 39.2 °F - 37.4 °F 93% 29.76 in 10.0 mi Calm Calm - N/A   Clear
12:56 AM 39.2 °F - 37.4 °F 93% 29.76 in 10.0 mi Calm Calm - N/A   Clear
1:15 AM 37.4 °F - 37.4 °F 100% 29.76 in 10.0 mi Calm Calm - N/A   Clear
1:20 AM 37.4 °F - 37.4 °F 100% 29.76 in 10.0 mi Calm Calm - N/A   Clear
1:37 AM 37.4 °F - 37.4 °F 100% 29.77 in 10.0 mi Calm Calm - N/A   Clear
1:55 AM 37.4 °F - 35.6 °F 93% 29.77 in 10.0 mi Calm Calm - N/A   Clear
2:15 AM 37.4 °F - 37.4 °F 100% 29.77 in 7.0 mi Calm Calm - N/A   Clear
2:16 AM 37.4 °F - 37.4 °F 100% 29.77 in 7.0 mi Calm Calm - N/A   Clear
2:35 AM 37.4 °F - 35.6 °F 93% 29.77 in 7.0 mi Calm Calm - N/A   Clear
2:36 AM 37.4 °F - 35.6 °F 93% 29.77 in 7.0 mi Calm Calm - N/A   Clear
2:59 AM 39.2 °F - 37.4 °F 93% 29.77 in 7.0 mi Calm Calm - N/A   Clear
3:16 AM 35.6 °F - 35.6 °F 100% 29.77 in 7.0 mi Calm Calm - N/A   Clear
3:35 AM 35.6 °F - 35.6 °F 100% 29.77 in 7.0 mi Calm Calm - N/A   Clear
3:36 AM 35.6 °F - 35.6 °F 100% 29.77 in 7.0 mi Calm Calm - N/A   Clear
3:55 AM 35.6 °F - 35.6 °F 100% 29.77 in 10.0 mi Calm Calm - N/A   Clear
3:56 AM 35.6 °F - 35.6 °F 100% 29.77 in 10.0 mi Calm Calm - N/A   Clear
4:19 AM 35.6 °F - 35.6 °F 100% 29.79 in 10.0 mi Calm Calm - N/A   Clear
4:38 AM 35.6 °F - 33.8 °F 93% 29.79 in 7.0 mi Calm Calm - N/A   Clear
4:55 AM 35.6 °F - 35.6 °F 100% 29.79 in 7.0 mi Calm Calm - N/A   Clear
5:15 AM 35.6 °F - 33.8 °F 93% 29.80 in 10.0 mi Calm Calm - N/A   Clear
5:16 AM 35.6 °F - 33.8 °F 93% 29.80 in 10.0 mi Calm Calm - N/A   Clear
5:35 AM 35.6 °F - 33.8 °F 93% 29.81 in 10.0 mi Calm Calm - N/A   Clear
5:36 AM 35.6 °F - 33.8 °F 93% 29.81 in 10.0 mi Calm Calm - N/A   Clear
5:59 AM 33.8 °F - 33.8 °F 100% 29.82 in 10.0 mi Calm Calm - N/A   Clear
6:16 AM - - - N/A% 29.82 in 10.0 mi Calm Calm - N/A   Clear
6:36 AM 33.8 °F - 33.8 °F 100% 29.82 in 10.0 mi Calm Calm - N/A   Clear
6:55 AM 33.8 °F - 33.8 °F 100% 29.82 in 10.0 mi Calm Calm - N/A   Clear
6:56 AM 33.8 °F - 33.8 °F 100% 29.82 in 10.0 mi Calm Calm - N/A   Clear
7:15 AM 33.8 °F - 33.8 °F 100% 29.83 in 10.0 mi Calm Calm - N/A   Clear
7:20 AM 33.8 °F - 33.8 °F 100% 29.82 in 10.0 mi Calm Calm - N/A   Clear
7:38 AM 33.8 °F - 32.0 °F 93% 29.83 in 10.0 mi Calm Calm - N/A   Clear
7:56 AM 33.8 °F - 33.8 °F 100% 29.83 in 7.0 mi Calm Calm - N/A   Clear
8:16 AM 35.6 °F - 33.8 °F 93% 29.84 in 10.0 mi Calm Calm - N/A   Clear
8:40 AM 37.4 °F - 35.6 °F 93% 29.85 in 10.0 mi Calm Calm - N/A   Clear
9:00 AM 42.8 °F - 42.8 °F 100% 29.86 in 5.0 mi Calm Calm - N/A   Clear
9:19 AM 42.8 °F - 42.8 °F 100% 29.87 in 3.0 mi North - - N/A   Mostly Cloudy
9:37 AM 42.8 °F 41.1 °F 42.8 °F 100% 29.87 in 0.2 mi ESE 3.5 mph - N/A Fog Fog
10:15 AM 44.6 °F - 44.6 °F 100% 29.87 in - Calm Calm - N/A   Mostly Cloudy
10:18 AM 44.6 °F - 44.6 °F 100% 29.87 in 5.0 mi Calm Calm - N/A   Mostly Cloudy
10:35 AM 46.4 °F 44.3 °F 44.6 °F 93% 29.86 in 10.0 mi East 4.6 mph - N/A   Scattered Clouds
10:39 AM 46.4 °F 44.3 °F 44.6 °F 93% 29.86 in 10.0 mi ESE 4.6 mph - N/A   Clear
10:57 AM 48.2 °F - 44.6 °F 87% 29.86 in 10.0 mi SE 5.8 mph - N/A   Clear
11:16 AM 51.8 °F - 42.8 °F 71% 29.86 in 10.0 mi SE 5.8 mph - N/A   Clear
11:36 AM 53.6 °F - 41.0 °F 62% 29.86 in 10.0 mi ESE 4.6 mph - N/A   Clear
11:55 AM 55.4 °F - 39.2 °F 54% 29.86 in 10.0 mi ESE 5.8 mph - N/A   Clear
11:56 AM 55.4 °F - 39.2 °F 54% 29.86 in 10.0 mi ESE 4.6 mph - N/A   Clear
12:15 PM 57.2 °F - 37.4 °F 48% 29.86 in 10.0 mi SE 5.8 mph - N/A   Clear
12:16 PM 57.2 °F - 37.4 °F 48% 29.87 in 10.0 mi SE 5.8 mph - N/A   Clear
12:39 PM 60.8 °F - 37.4 °F 42% 29.86 in 10.0 mi ESE 8.1 mph - N/A   Clear
12:57 PM 62.6 °F - 33.8 °F 34% 29.86 in 10.0 mi SE 8.1 mph - N/A   Clear
1:16 PM 64.4 °F - 32.0 °F 30% 29.85 in 10.0 mi SE 9.2 mph - N/A   Clear
1:35 PM 64.4 °F - 28.4 °F 26% 29.85 in 10.0 mi SE 8.1 mph - N/A   Clear
1:55 PM 64.4 °F - 28.4 °F 26% 29.84 in 10.0 mi ESE 11.5 mph - N/A   Clear
2:16 PM 64.4 °F - 26.6 °F 24% 29.84 in 10.0 mi ESE 11.5 mph - N/A   Clear
2:35 PM 66.2 °F - 26.6 °F 23% 29.84 in 10.0 mi SE 9.2 mph - N/A   Clear
2:36 PM 66.2 °F - 26.6 °F 23% 29.84 in 10.0 mi SE 9.2 mph - N/A   Clear
2:55 PM 64.4 °F - 24.8 °F 22% 29.83 in 10.0 mi SE 9.2 mph - N/A   Clear
3:15 PM 66.2 °F - 26.6 °F 23% 29.83 in 10.0 mi SE 9.2 mph - N/A   Clear
3:19 PM 66.2 °F - 26.6 °F 23% 29.83 in 10.0 mi ESE 10.4 mph - N/A   Clear
3:37 PM 66.2 °F - 26.6 °F 23% 29.84 in 10.0 mi ESE 10.4 mph - N/A   Clear
3:55 PM 64.4 °F - 26.6 °F 24% 29.84 in 10.0 mi ESE 8.1 mph - N/A   Clear
4:15 PM 64.4 °F - 26.6 °F 24% 29.83 in 10.0 mi ESE 8.1 mph - N/A   Clear
4:16 PM 64.4 °F - 26.6 °F 24% 29.83 in 10.0 mi ESE 9.2 mph - N/A   Clear
4:35 PM 64.4 °F - 24.8 °F 22% 29.83 in 10.0 mi ESE 8.1 mph - N/A   Clear
4:36 PM 64.4 °F - 24.8 °F 22% 29.83 in 10.0 mi ESE 9.2 mph - N/A   Clear
4:59 PM 62.6 °F - 23.0 °F 22% 29.83 in 10.0 mi SE 9.2 mph - N/A   Clear
5:16 PM 62.6 °F - 21.2 °F 20% 29.83 in 10.0 mi SE 9.2 mph - N/A   Clear
5:36 PM 60.8 °F - 23.0 °F 23% 29.82 in 10.0 mi ESE 8.1 mph - N/A   Clear
5:55 PM 60.8 °F - 24.8 °F 25% 29.82 in 10.0 mi ESE 5.8 mph - N/A   Clear
6:15 PM 60.8 °F - 23.0 °F 23% 29.82 in 10.0 mi ESE 8.1 mph - N/A   Clear
6:37 PM 60.8 °F - 21.2 °F 22% 29.81 in 10.0 mi ESE 6.9 mph - N/A   Clear
6:55 PM 60.8 °F - 21.2 °F 22% 29.81 in 10.0 mi ESE 5.8 mph - N/A   Clear
7:15 PM 59.0 °F - 23.0 °F 25% 29.82 in 10.0 mi ESE 6.9 mph - N/A   Clear
7:35 PM 59.0 °F - 24.8 °F 27% 29.82 in 10.0 mi ESE 6.9 mph - N/A   Clear
7:58 PM 57.2 °F - 24.8 °F 29% 29.83 in 10.0 mi ESE 5.8 mph - N/A   Clear
8:16 PM 57.2 °F - 24.8 °F 29% 29.83 in 10.0 mi East 5.8 mph - N/A   Clear
8:35 PM 57.2 °F - 26.6 °F 31% 29.83 in 10.0 mi ESE 4.6 mph - N/A   Clear
8:55 PM 55.4 °F - 26.6 °F 33% 29.82 in 10.0 mi East 5.8 mph - N/A   Clear
9:15 PM 55.4 °F - 28.4 °F 36% 29.82 in 10.0 mi ESE 6.9 mph - N/A   Clear
9:19 PM 55.4 °F - 28.4 °F 36% 29.82 in 10.0 mi ESE 6.9 mph - N/A   Clear
9:37 PM 55.4 °F - 28.4 °F 36% 29.82 in 10.0 mi ESE 6.9 mph - N/A   Clear
9:55 PM 55.4 °F - 30.2 °F 38% 29.82 in 10.0 mi ESE 6.9 mph - N/A   Clear
10:15 PM 55.4 °F - 30.2 °F 38% 29.82 in 10.0 mi ESE 5.8 mph - N/A   Clear
10:35 PM 55.4 °F - 30.2 °F 38% 29.82 in 10.0 mi East 5.8 mph - N/A   Clear
10:36 PM 55.4 °F - 30.2 °F 38% 29.81 in 10.0 mi East 5.8 mph - N/A   Clear
10:59 PM 55.4 °F - 30.2 °F 38% 29.81 in 10.0 mi ESE 5.8 mph - N/A   Clear
11:17 PM 55.4 °F - 30.2 °F 38% 29.80 in 10.0 mi East 5.8 mph - N/A   Clear
11:36 PM 55.4 °F - 32.0 °F 41% 29.79 in 10.0 mi East 8.1 mph - N/A   Clear
11:55 PM 55.4 °F - 32.0 °F 41% 29.78 in 10.0 mi East 6.9 mph - N/A   Clear
11:56 PM 55.4 °F - 32.0 °F 41% 29.78 in 10.0 mi ESE 6.9 mph - N/A   Clear